Lapeer, MI

5:52 AM EDT on August 03, 2015 (GMT -0400)
Lapeer/ Lapeer 2 West | | Change Station
CLOSE
Current Station
Personal Weather Station
Location: Lapeer, MI
Elevation: 895 ft
Nearby Weather Stations

Elev 895 ft 43.06 °N, 83.36 °W | Updated 11 seconds ago

Overcast
Overcast
63.5 °F
Feels Like 63.5 °F
N
4.3
Wind Variable Wind from WSW
Gusts 4.3 mph

Today
High -- | Low -- °F
--% Chance of Precip.
Yesterday
High -- | Low -- °F
Precip. -- in
6:25 AM 8:52 PM
Waning Gibbous, 88% visible
Pressure 29.73 in
Visibility 10.0 miles
Clouds Scattered Clouds 900 ft
Overcast 1400 ft
Dew Point 64 °F
Humidity 100%
Rainfall 0.12 in
Snow Depth Not available.
UV 0 out of 12
Pollen 8.40 out of 12
Air Quality Not available.
Flu Activity Not available.
METAR KD95 030933Z AUTO 25005KT 10SM SCT009 OVC014 17/17 A2973 RMK AO2 T01740168

More Conditions Fewer Conditions

Pressure 29.73 in
Visibility 10.0 miles
Clouds Scattered Clouds 900 ft
Overcast 1400 ft
Dew Point 64 °F
Humidity 100%
Rainfall 0.12 in
Snow Depth Not available.
UV 0 out of 12
Pollen 8.40 out of 12
Air Quality Not available.
Flu Activity Not available.
METAR KD95 030933Z AUTO 25005KT 10SM SCT009 OVC014 17/17 A2973 RMK AO2 T01740168

More Conditions Fewer Conditions

10-Day Weather Forecast

×

Almanac

Astronomy

Aug. 03, 2015 Rise Set
Actual Time
Civil Twilight
Nautical Twilight
Astronomical Twilight
Moon
Length of Visible Light
Length of Day
Tomorrow will be .
, % of the Moon is Illuminated

Today's Extremes

State Highs State Lows

Community

WunderPhotos

Upload Photos

1,843,610 photos uploaded!

WunderBlogs® & News

Nearby

Air Quality

  Air Quality AQ Index Pollutant
Not available.

Snow Depth

Station Depth Elevation

Earthquake Activity

City Distance Mag. Time & Date
Minimum magnitude displayed is 2.5.

Coastal Water Temperatures

Place Temperature

Stations

Nearby Weather Stations

Station Location Temp. Windchill Dew Point Humidity Wind Precip. Elev Updated Type